createdAt,value
2018-08-24T00:00:17.494Z,92.71
2018-08-24T00:00:52.985Z,93.14
2018-08-24T00:01:28.220Z,93.48
2018-08-24T00:02:03.595Z,93.19
2018-08-24T00:02:38.730Z,93.87
2018-08-24T00:03:14.064Z,93.67
2018-08-24T00:03:49.370Z,93.77
2018-08-24T00:04:24.979Z,93.96
2018-08-24T00:05:00.281Z,94.54
2018-08-24T00:05:35.793Z,95.50
2018-08-24T00:06:10.933Z,96.46
2018-08-24T00:06:46.309Z,97.19
2018-08-24T00:07:21.670Z,97.14
2018-08-24T00:07:57.037Z,97.81
2018-08-24T00:08:32.350Z,98.58
2018-08-24T00:09:07.472Z,98.68
2018-08-24T00:09:42.829Z,98.77
2018-08-24T00:10:18.056Z,99.64
2018-08-24T00:10:53.280Z,99.98
2018-08-24T00:11:28.614Z,99.99
2018-08-24T00:12:03.949Z,99.99
2018-08-24T00:12:39.376Z,99.99
2018-08-24T00:13:14.908Z,99.99
2018-08-24T00:13:50.341Z,99.99
2018-08-24T00:14:25.865Z,99.99
2018-08-24T00:15:00.853Z,99.99
2018-08-24T00:15:36.497Z,99.99
2018-08-24T00:16:11.932Z,99.99
2018-08-24T00:16:46.954Z,99.99
2018-08-24T00:17:22.404Z,99.99
2018-08-24T00:17:57.902Z,99.99
2018-08-24T00:18:33.312Z,99.99
2018-08-24T00:19:08.729Z,99.99
2018-08-24T00:19:43.969Z,99.99
2018-08-24T00:20:19.281Z,99.99
2018-08-24T00:20:54.817Z,99.99
2018-08-24T00:21:30.156Z,99.99
2018-08-24T00:22:05.498Z,99.99
2018-08-24T00:22:40.851Z,99.99
2018-08-24T00:23:16.370Z,99.99
2018-08-24T00:23:51.818Z,99.99
2018-08-24T00:24:27.111Z,99.99
2018-08-24T00:25:02.534Z,99.99
2018-08-24T00:25:37.729Z,99.99
2018-08-24T00:26:13.178Z,99.99
2018-08-24T00:26:48.651Z,99.99
2018-08-24T00:27:23.671Z,99.99
2018-08-24T00:27:59.074Z,99.99
2018-08-24T00:28:34.202Z,99.99
2018-08-24T00:29:09.618Z,99.99
2018-08-24T00:29:44.967Z,99.99
2018-08-24T00:30:20.209Z,99.99
2018-08-24T00:30:55.216Z,99.99
2018-08-24T00:31:30.454Z,99.99
2018-08-24T00:32:05.754Z,99.99
2018-08-24T00:32:41.375Z,99.99
2018-08-24T00:33:17.066Z,99.99
2018-08-24T00:33:52.286Z,99.99
2018-08-24T00:34:27.673Z,99.99
2018-08-24T00:35:02.892Z,99.99
2018-08-24T00:35:38.088Z,99.99
2018-08-24T00:36:13.402Z,99.99
2018-08-24T00:36:49.083Z,99.99
2018-08-24T00:37:24.299Z,99.99
2018-08-24T00:37:59.651Z,99.99
2018-08-24T00:38:34.857Z,99.99
2018-08-24T00:39:10.864Z,99.99
2018-08-24T00:39:46.263Z,99.99
2018-08-24T00:40:21.701Z,99.99
2018-08-24T00:40:57.325Z,99.99
2018-08-24T00:41:32.511Z,99.99
2018-08-24T00:42:08.015Z,99.99
2018-08-24T00:42:43.211Z,99.99
2018-08-24T00:43:18.794Z,99.99
2018-08-24T00:43:53.922Z,99.99
2018-08-24T00:44:29.264Z,99.99
2018-08-24T00:45:04.593Z,99.99
2018-08-24T00:45:39.625Z,99.99
2018-08-24T00:46:14.832Z,99.99
2018-08-24T00:46:50.078Z,99.99
2018-08-24T00:47:25.358Z,99.99
2018-08-24T00:48:00.395Z,99.99
2018-08-24T00:48:35.779Z,99.99
2018-08-24T00:49:11.124Z,99.99
2018-08-24T00:49:46.540Z,99.99
2018-08-24T00:50:21.850Z,99.99
2018-08-24T00:50:57.471Z,99.99
2018-08-24T00:51:32.901Z,99.99
2018-08-24T00:52:08.266Z,99.99
2018-08-24T00:52:43.355Z,99.99
2018-08-24T00:53:18.568Z,99.99
2018-08-24T00:53:54.572Z,99.99
2018-08-24T00:54:29.718Z,99.99
2018-08-24T00:55:05.221Z,99.99
2018-08-24T00:55:40.679Z,99.99
2018-08-24T00:56:15.976Z,99.99
2018-08-24T00:56:51.463Z,99.99
2018-08-24T00:57:26.895Z,99.99
2018-08-24T00:58:02.400Z,99.99
2018-08-24T00:58:37.813Z,99.99
2018-08-24T00:59:13.102Z,99.99
2018-08-24T00:59:48.341Z,99.99
2018-08-24T01:00:23.658Z,99.99
2018-08-24T01:00:58.887Z,99.99
2018-08-24T01:01:34.196Z,99.99
2018-08-24T01:02:09.548Z,99.99
2018-08-24T01:02:45.381Z,99.93
2018-08-24T01:03:20.812Z,99.99
2018-08-24T01:03:56.236Z,99.99
2018-08-24T01:04:31.702Z,99.99
2018-08-24T01:05:07.376Z,99.99
2018-08-24T01:05:42.875Z,99.83
2018-08-24T01:06:18.199Z,99.83
2018-08-24T01:06:53.403Z,99.93
2018-08-24T01:07:28.856Z,99.93
2018-08-24T01:08:04.045Z,99.78
2018-08-24T01:08:39.300Z,99.99
2018-08-24T01:09:14.717Z,99.99
2018-08-24T01:09:50.443Z,99.99
2018-08-24T01:10:25.730Z,99.99
2018-08-24T01:11:01.244Z,99.54
2018-08-24T01:11:37.301Z,99.99
2018-08-24T01:12:12.898Z,99.99
2018-08-24T01:12:48.417Z,99.99
2018-08-24T01:13:23.514Z,99.99
2018-08-24T01:13:59.059Z,99.99
2018-08-24T01:14:34.468Z,99.99
2018-08-24T01:15:09.905Z,99.99
2018-08-24T01:15:46.513Z,99.99
2018-08-24T01:16:21.971Z,99.99
2018-08-24T01:16:57.716Z,99.99
2018-08-24T01:17:33.650Z,99.99
2018-08-24T01:18:09.292Z,99.99
2018-08-24T01:18:44.422Z,99.99
2018-08-24T01:19:19.837Z,99.99
2018-08-24T01:19:55.025Z,99.99
2018-08-24T01:20:30.155Z,99.99
2018-08-24T01:21:05.570Z,99.99
2018-08-24T01:21:41.404Z,99.99
2018-08-24T01:22:16.794Z,99.99
2018-08-24T01:22:52.640Z,99.99
2018-08-24T01:23:28.025Z,99.99
2018-08-24T01:24:03.676Z,99.99
2018-08-24T01:24:39.020Z,99.99
2018-08-24T01:25:14.516Z,99.99
2018-08-24T01:25:49.792Z,99.99
2018-08-24T01:26:25.187Z,99.99
2018-08-24T01:27:00.934Z,99.99
2018-08-24T01:27:36.030Z,99.99
2018-08-24T01:28:11.382Z,99.99
2018-08-24T01:28:46.477Z,99.99
2018-08-24T01:29:22.014Z,99.99
2018-08-24T01:29:57.483Z,99.99
2018-08-24T01:30:32.815Z,99.99
2018-08-24T01:31:08.031Z,99.99
2018-08-24T01:31:43.484Z,99.99
2018-08-24T01:32:18.828Z,99.99
2018-08-24T01:32:54.225Z,99.99
2018-08-24T01:33:29.825Z,99.99
2018-08-24T01:34:05.110Z,99.99
2018-08-24T01:34:40.653Z,99.99
2018-08-24T01:35:15.845Z,99.99
2018-08-24T01:35:51.045Z,99.99
2018-08-24T01:36:26.460Z,99.99
2018-08-24T01:37:02.172Z,99.99
2018-08-24T01:37:37.765Z,99.99
2018-08-24T01:38:13.291Z,99.99
2018-08-24T01:38:48.629Z,99.99
2018-08-24T01:39:23.820Z,99.99
2018-08-24T01:39:59.224Z,99.99
2018-08-24T01:40:34.398Z,99.99
2018-08-24T01:41:10.120Z,99.99
2018-08-24T01:41:45.436Z,99.99
2018-08-24T01:42:20.784Z,99.99
2018-08-24T01:42:56.292Z,99.99
2018-08-24T01:43:31.923Z,99.99
2018-08-24T01:44:07.303Z,99.99
2018-08-24T01:44:42.449Z,99.99
2018-08-24T01:45:17.763Z,99.99
2018-08-24T01:45:53.158Z,99.99
2018-08-24T01:46:28.512Z,99.99
2018-08-24T01:47:04.115Z,99.99
2018-08-24T01:47:39.458Z,99.99
2018-08-24T01:48:14.789Z,99.99
2018-08-24T01:48:50.097Z,99.99
2018-08-24T01:49:26.695Z,99.99
2018-08-24T01:50:01.900Z,99.99
2018-08-24T01:50:37.207Z,99.99
2018-08-24T01:51:12.630Z,99.99
2018-08-24T01:51:47.863Z,99.99
2018-08-24T01:52:23.201Z,99.99
2018-08-24T01:52:58.417Z,99.99
2018-08-24T01:53:33.594Z,99.99
2018-08-24T01:54:08.703Z,99.99
2018-08-24T01:54:43.886Z,99.99
2018-08-24T01:55:19.303Z,99.99
2018-08-24T01:55:54.624Z,99.99
2018-08-24T01:56:30.054Z,99.99
2018-08-24T01:57:05.232Z,99.99
2018-08-24T01:57:40.552Z,99.99
2018-08-24T01:58:15.623Z,99.99
2018-08-24T01:58:51.058Z,99.99
2018-08-24T01:59:26.381Z,99.99
2018-08-24T02:00:02.013Z,99.99
2018-08-24T02:00:37.520Z,99.99
2018-08-24T02:01:12.825Z,99.99
2018-08-24T02:01:48.177Z,99.99
2018-08-24T02:02:23.597Z,99.99
2018-08-24T02:02:59.226Z,99.99
2018-08-24T02:03:34.611Z,99.99
2018-08-24T02:04:09.956Z,99.99
2018-08-24T02:04:45.267Z,99.99
2018-08-24T02:05:21.294Z,99.99
2018-08-24T02:05:56.761Z,99.99
2018-08-24T02:06:31.910Z,99.99
2018-08-24T02:07:07.073Z,99.99
2018-08-24T02:07:42.370Z,99.99
2018-08-24T02:08:17.778Z,99.99
2018-08-24T02:08:53.305Z,99.92
2018-08-24T02:09:28.226Z,99.92
2018-08-24T02:10:03.526Z,99.99
2018-08-24T02:10:39.547Z,99.99
2018-08-24T02:11:14.955Z,99.58
2018-08-24T02:11:50.691Z,99.44
2018-08-24T02:12:26.143Z,98.77
2018-08-24T02:13:01.472Z,98.43
2018-08-24T02:13:36.844Z,98.19
2018-08-24T02:14:12.448Z,98.10
2018-08-24T02:14:47.964Z,98.39
2018-08-24T02:15:23.263Z,98.58
2018-08-24T02:15:58.764Z,98.29
2018-08-24T02:16:34.505Z,97.42
2018-08-24T02:17:09.727Z,98.39
2018-08-24T02:17:44.811Z,97.52
2018-08-24T02:18:20.241Z,97.57
2018-08-24T02:18:55.540Z,97.57
2018-08-24T02:19:31.291Z,97.66
2018-08-24T02:20:06.508Z,97.28
2018-08-24T02:20:41.394Z,96.89
2018-08-24T02:21:16.695Z,96.94
2018-08-24T02:21:52.006Z,95.65
2018-08-24T02:22:27.243Z,95.12
2018-08-24T02:23:02.748Z,94.69
2018-08-24T02:23:38.384Z,93.73
2018-08-24T02:24:13.776Z,94.11
2018-08-24T02:24:49.601Z,94.49
2018-08-24T02:25:25.006Z,94.31
2018-08-24T02:26:00.411Z,94.49
2018-08-24T02:26:35.761Z,94.59
2018-08-24T02:27:11.371Z,94.69
2018-08-24T02:27:46.617Z,93.25
2018-08-24T02:28:22.099Z,93.34
2018-08-24T02:28:57.607Z,93.63
2018-08-24T02:29:33.118Z,93.44
2018-08-24T02:30:08.731Z,93.15
2018-08-24T02:30:44.047Z,93.44
2018-08-24T02:31:19.317Z,92.67
2018-08-24T02:31:54.813Z,93.25
2018-08-24T02:32:30.243Z,93.44
2018-08-24T02:33:05.768Z,93.05
2018-08-24T02:33:41.099Z,93.25
2018-08-24T02:34:16.615Z,92.48
2018-08-24T02:34:52.109Z,93.20
2018-08-24T02:35:27.653Z,93.10
2018-08-24T02:36:02.795Z,93.20
2018-08-24T02:36:38.728Z,93.10
2018-08-24T02:37:13.947Z,93.20
2018-08-24T02:37:49.368Z,93.20
2018-08-24T02:38:24.649Z,92.82
2018-08-24T02:39:00.045Z,93.01
2018-08-24T02:39:35.279Z,93.30
2018-08-24T02:40:10.889Z,93.49
2018-08-24T02:40:46.299Z,93.01
2018-08-24T02:41:21.384Z,93.49
2018-08-24T02:41:56.617Z,93.59
2018-08-24T02:42:31.943Z,93.39
2018-08-24T02:43:07.376Z,93.30
2018-08-24T02:43:42.686Z,93.87
2018-08-24T02:44:17.926Z,93.77
2018-08-24T02:44:53.225Z,93.63
2018-08-24T02:45:28.450Z,93.87
2018-08-24T02:46:03.870Z,93.68
2018-08-24T02:46:39.086Z,94.21
2018-08-24T02:47:15.225Z,93.82
2018-08-24T02:47:50.734Z,94.45
2018-08-24T02:48:26.050Z,94.40
2018-08-24T02:49:01.570Z,94.40
2018-08-24T02:49:37.108Z,94.21
2018-08-24T02:50:12.311Z,94.26
2018-08-24T02:50:47.447Z,94.59
2018-08-24T02:51:22.800Z,94.98
2018-08-24T02:51:58.275Z,94.79
2018-08-24T02:52:33.588Z,94.59
2018-08-24T02:53:08.924Z,95.26
2018-08-24T02:53:44.151Z,95.17
2018-08-24T02:54:19.434Z,94.88
2018-08-24T02:54:54.966Z,94.98
2018-08-24T02:55:30.557Z,94.98
2018-08-24T02:56:05.887Z,94.98
2018-08-24T02:56:41.084Z,94.59
2018-08-24T02:57:16.699Z,94.88
2018-08-24T02:57:51.881Z,95.17
2018-08-24T02:58:27.401Z,95.17
2018-08-24T02:59:02.797Z,95.17
2018-08-24T02:59:37.941Z,95.26
2018-08-24T03:00:13.058Z,94.69
2018-08-24T03:00:48.256Z,94.79
2018-08-24T03:01:23.392Z,94.98
2018-08-24T03:01:58.855Z,94.31
2018-08-24T03:02:34.090Z,94.31
2018-08-24T03:03:09.514Z,94.40
2018-08-24T03:03:44.727Z,94.31
2018-08-24T03:04:20.021Z,94.49
2018-08-24T03:04:55.634Z,94.59
2018-08-24T03:05:31.296Z,94.12
2018-08-24T03:06:06.445Z,93.82
2018-08-24T03:06:42.005Z,94.12
2018-08-24T03:07:17.312Z,94.49
2018-08-24T03:07:52.573Z,94.59
2018-08-24T03:08:27.875Z,94.40
2018-08-24T03:09:03.093Z,94.49
2018-08-24T03:09:38.505Z,94.40
2018-08-24T03:10:13.834Z,94.31
2018-08-24T03:10:49.026Z,94.88
2018-08-24T03:11:24.347Z,95.46
2018-08-24T03:11:59.678Z,95.55
2018-08-24T03:12:35.123Z,95.46
2018-08-24T03:13:10.647Z,95.36
2018-08-24T03:13:45.956Z,96.13
2018-08-24T03:14:21.093Z,95.75
2018-08-24T03:14:56.771Z,96.03
2018-08-24T03:15:32.300Z,96.13
2018-08-24T03:16:07.951Z,96.32
2018-08-24T03:16:43.253Z,96.89
2018-08-24T03:17:18.772Z,96.99
2018-08-24T03:17:54.382Z,97.19
2018-08-24T03:18:29.809Z,96.99
2018-08-24T03:19:05.555Z,97.28
2018-08-24T03:19:40.640Z,97.38
2018-08-24T03:20:16.375Z,98.24
2018-08-24T03:20:51.711Z,97.95
2018-08-24T03:21:27.036Z,98.14
2018-08-24T03:22:02.644Z,98.24
2018-08-24T03:22:38.160Z,98.14
2018-08-24T03:23:13.662Z,98.33
2018-08-24T03:23:48.757Z,97.38
2018-08-24T03:24:23.875Z,97.56
2018-08-24T03:24:59.395Z,97.28
2018-08-24T03:25:34.742Z,97.38
2018-08-24T03:26:10.149Z,97.47
2018-08-24T03:26:45.501Z,97.66
2018-08-24T03:27:21.004Z,97.47
2018-08-24T03:27:56.190Z,97.19
2018-08-24T03:28:31.735Z,97.28
2018-08-24T03:29:06.836Z,97.47
2018-08-24T03:29:42.251Z,97.38
2018-08-24T03:30:17.555Z,97.19
2018-08-24T03:30:53.063Z,97.19
2018-08-24T03:31:28.632Z,97.38
2018-08-24T03:32:04.251Z,97.38
2018-08-24T03:32:39.339Z,97.28
2018-08-24T03:33:14.754Z,98.24
2018-08-24T03:33:49.937Z,97.86
2018-08-24T03:34:25.632Z,97.86
2018-08-24T03:35:01.044Z,98.00
2018-08-24T03:35:36.521Z,97.76
2018-08-24T03:36:12.357Z,97.95
2018-08-24T03:36:47.983Z,98.05
2018-08-24T03:37:23.224Z,98.14
2018-08-24T03:37:58.714Z,97.95
2018-08-24T03:38:34.224Z,98.38
2018-08-24T03:39:09.514Z,98.00
2018-08-24T03:39:44.830Z,98.29
2018-08-24T03:40:20.160Z,97.81
2018-08-24T03:40:56.467Z,98.24
2018-08-24T03:41:31.767Z,98.29
2018-08-24T03:42:07.195Z,97.76
2018-08-24T03:42:42.916Z,98.14
2018-08-24T03:43:18.327Z,98.43
2018-08-24T03:43:53.739Z,98.33
2018-08-24T03:44:29.119Z,98.82
2018-08-24T03:45:04.729Z,98.24
2018-08-24T03:45:39.863Z,98.62
2018-08-24T03:46:15.157Z,98.62
2018-08-24T03:46:50.473Z,98.62
2018-08-24T03:47:25.933Z,98.43
2018-08-24T03:48:01.407Z,98.72
2018-08-24T03:48:36.576Z,98.62
2018-08-24T03:49:11.917Z,98.33
2018-08-24T03:49:47.120Z,98.62
2018-08-24T03:50:22.748Z,98.62
2018-08-24T03:50:58.251Z,99.39
2018-08-24T03:51:33.528Z,99.01
2018-08-24T03:52:09.031Z,99.49
2018-08-24T03:52:44.597Z,99.49
2018-08-24T03:53:19.834Z,99.20
2018-08-24T03:53:55.394Z,99.20
2018-08-24T03:54:30.835Z,99.20
2018-08-24T03:55:06.236Z,99.20
2018-08-24T03:55:41.886Z,99.20
2018-08-24T03:56:17.209Z,99.01
2018-08-24T03:56:52.540Z,99.68
2018-08-24T03:57:28.081Z,99.49
2018-08-24T03:58:03.390Z,99.58
2018-08-24T03:58:39.009Z,99.29
2018-08-24T03:59:14.443Z,99.68
2018-08-24T03:59:49.647Z,99.77
2018-08-24T04:00:25.069Z,99.68
2018-08-24T04:01:00.490Z,99.99
2018-08-24T04:01:35.542Z,99.87
2018-08-24T04:02:10.665Z,99.77
2018-08-24T04:02:46.077Z,99.68
2018-08-24T04:03:21.304Z,99.96
2018-08-24T04:03:56.792Z,99.99
2018-08-24T04:04:32.229Z,99.77
2018-08-24T04:05:07.743Z,99.39
2018-08-24T04:05:43.396Z,99.29
2018-08-24T04:06:18.700Z,99.29
2018-08-24T04:06:54.245Z,98.82
2018-08-24T04:07:29.602Z,99.20
2018-08-24T04:08:04.696Z,99.39
2018-08-24T04:08:40.059Z,99.39
2018-08-24T04:09:15.456Z,99.58
2018-08-24T04:09:51.480Z,99.01
2018-08-24T04:10:26.985Z,99.20
2018-08-24T04:11:02.337Z,99.29
2018-08-24T04:11:37.544Z,99.20
2018-08-24T04:12:13.190Z,99.39
2018-08-24T04:12:48.503Z,99.58
2018-08-24T04:13:23.805Z,99.58
2018-08-24T04:13:59.019Z,99.68
2018-08-24T04:14:34.564Z,99.49
2018-08-24T04:15:10.196Z,99.87
2018-08-24T04:15:45.725Z,99.96
2018-08-24T04:16:21.180Z,99.87
2018-08-24T04:16:56.570Z,99.58
2018-08-24T04:17:31.896Z,99.77
2018-08-24T04:18:07.290Z,99.77
2018-08-24T04:18:43.522Z,99.29
2018-08-24T04:19:18.820Z,99.87
2018-08-24T04:19:53.971Z,99.68
2018-08-24T04:20:29.480Z,99.39
2018-08-24T04:21:04.601Z,99.58
2018-08-24T04:21:40.061Z,99.77
2018-08-24T04:22:15.173Z,99.39
2018-08-24T04:22:50.386Z,99.96
2018-08-24T04:23:25.893Z,99.39
2018-08-24T04:24:01.005Z,99.77
2018-08-24T04:24:36.225Z,99.87
2018-08-24T04:25:11.563Z,99.39
2018-08-24T04:25:46.906Z,99.49
2018-08-24T04:26:22.397Z,99.77
2018-08-24T04:26:57.507Z,99.99
2018-08-24T04:27:32.754Z,99.58
2018-08-24T04:28:08.022Z,99.96
2018-08-24T04:28:43.434Z,99.99
2018-08-24T04:29:18.742Z,99.99
2018-08-24T04:29:54.526Z,99.96
2018-08-24T04:30:29.870Z,99.77
2018-08-24T04:31:05.862Z,99.68
2018-08-24T04:31:41.372Z,99.82
2018-08-24T04:32:16.933Z,99.29
2018-08-24T04:32:52.058Z,99.92
2018-08-24T04:33:27.234Z,99.82
2018-08-24T04:34:02.586Z,99.73
2018-08-24T04:34:38.143Z,99.63
2018-08-24T04:35:13.454Z,99.73
2018-08-24T04:35:48.972Z,99.82
2018-08-24T04:36:24.171Z,99.99
2018-08-24T04:36:59.377Z,99.99
2018-08-24T04:37:35.003Z,99.99
2018-08-24T04:38:10.421Z,99.99
2018-08-24T04:38:45.715Z,99.99
2018-08-24T04:39:20.815Z,99.99
2018-08-24T04:39:56.032Z,99.99
2018-08-24T04:40:31.354Z,99.99
2018-08-24T04:41:06.686Z,99.99
2018-08-24T04:41:41.929Z,99.99
2018-08-24T04:42:17.252Z,99.99
2018-08-24T04:42:52.598Z,99.99
2018-08-24T04:43:28.308Z,99.99
2018-08-24T04:44:03.740Z,99.99
2018-08-24T04:44:39.287Z,99.99
2018-08-24T04:45:14.580Z,99.99
2018-08-24T04:45:50.061Z,99.99
2018-08-24T04:46:25.537Z,99.99
2018-08-24T04:47:01.061Z,99.99
2018-08-24T04:47:36.686Z,99.99
2018-08-24T04:48:12.127Z,99.99
2018-08-24T04:48:47.448Z,99.99
2018-08-24T04:49:22.576Z,99.99
2018-08-24T04:49:58.103Z,99.99
2018-08-24T04:50:33.607Z,99.99
2018-08-24T04:51:09.310Z,99.99
2018-08-24T04:51:44.500Z,99.99
2018-08-24T04:52:19.947Z,99.99
2018-08-24T04:52:55.064Z,99.99
2018-08-24T04:53:30.479Z,99.99
2018-08-24T04:54:05.755Z,99.99
2018-08-24T04:54:41.172Z,99.99
2018-08-24T04:55:17.085Z,99.99
2018-08-24T04:55:52.691Z,99.99
2018-08-24T04:56:28.049Z,99.99
2018-08-24T04:57:03.432Z,99.99
2018-08-24T04:57:39.076Z,99.99
2018-08-24T04:58:14.106Z,99.99
2018-08-24T04:58:49.301Z,99.99
2018-08-24T04:59:24.701Z,99.99
2018-08-24T05:00:01.033Z,99.99
2018-08-24T05:00:36.343Z,99.99
2018-08-24T05:01:11.659Z,99.99
2018-08-24T05:01:47.208Z,99.99
2018-08-24T05:02:23.008Z,99.99
2018-08-24T05:02:58.349Z,99.99
2018-08-24T05:03:33.749Z,99.99
2018-08-24T05:04:09.259Z,99.99
2018-08-24T05:04:44.755Z,99.99
2018-08-24T05:05:20.081Z,99.99
2018-08-24T05:05:55.483Z,99.99
2018-08-24T05:06:30.791Z,99.99
2018-08-24T05:07:06.188Z,99.99
2018-08-24T05:07:41.756Z,99.99
2018-08-24T05:08:17.235Z,99.99
2018-08-24T05:08:52.343Z,99.99
2018-08-24T05:09:27.641Z,99.99
2018-08-24T05:10:02.738Z,99.99
2018-08-24T05:10:38.169Z,99.99
2018-08-24T05:11:13.595Z,99.99
2018-08-24T05:11:48.957Z,99.99
2018-08-24T05:12:24.105Z,99.99
2018-08-24T05:12:59.543Z,99.99
2018-08-24T05:13:35.151Z,99.99
2018-08-24T05:14:10.852Z,99.99
2018-08-24T05:14:46.472Z,99.99
2018-08-24T05:15:21.903Z,99.99
2018-08-24T05:15:57.235Z,99.99
2018-08-24T05:16:32.445Z,99.99
2018-08-24T05:17:07.658Z,99.99
2018-08-24T05:17:43.046Z,99.99
2018-08-24T05:18:18.270Z,99.99
2018-08-24T05:18:53.474Z,99.99
2018-08-24T05:19:29.017Z,99.99
2018-08-24T05:20:04.620Z,99.99
2018-08-24T05:20:39.930Z,99.99
2018-08-24T05:21:15.717Z,99.99
2018-08-24T05:21:50.867Z,99.99
2018-08-24T05:22:26.392Z,99.99
2018-08-24T05:23:01.516Z,99.99
2018-08-24T05:23:37.153Z,99.99
2018-08-24T05:24:12.583Z,99.99
2018-08-24T05:24:47.858Z,99.99
2018-08-24T05:25:22.910Z,99.99
2018-08-24T05:25:58.162Z,99.99
2018-08-24T05:26:33.679Z,99.99
2018-08-24T05:27:09.116Z,99.99
2018-08-24T05:27:45.003Z,99.99
2018-08-24T05:28:20.093Z,99.99
2018-08-24T05:28:55.342Z,99.99
2018-08-24T05:29:30.665Z,99.99
2018-08-24T05:30:05.783Z,99.99
2018-08-24T05:30:41.092Z,99.99
2018-08-24T05:31:16.401Z,99.99
2018-08-24T05:31:51.804Z,99.99
2018-08-24T05:32:27.228Z,99.99
2018-08-24T05:33:02.806Z,99.99
2018-08-24T05:33:37.940Z,99.99
2018-08-24T05:34:13.174Z,99.99
2018-08-24T05:34:48.678Z,99.99
2018-08-24T05:35:23.895Z,99.99
2018-08-24T05:35:59.298Z,99.99
2018-08-24T05:36:34.652Z,99.99
2018-08-24T05:37:09.975Z,99.99
2018-08-24T05:37:45.196Z,99.99
2018-08-24T05:38:20.605Z,99.99
2018-08-24T05:38:55.826Z,99.99
2018-08-24T05:39:31.077Z,99.99
2018-08-24T05:40:06.396Z,99.99
2018-08-24T05:40:41.704Z,99.99
2018-08-24T05:41:16.975Z,99.99
2018-08-24T05:41:52.347Z,99.99
2018-08-24T05:42:27.658Z,99.99
2018-08-24T05:43:02.894Z,99.99
2018-08-24T05:43:38.188Z,99.99
2018-08-24T05:44:13.513Z,99.99
2018-08-24T05:44:48.628Z,99.99
2018-08-24T05:45:24.161Z,99.99
2018-08-24T05:45:59.468Z,99.99
2018-08-24T05:46:34.784Z,99.99
2018-08-24T05:47:10.130Z,99.99
2018-08-24T05:47:45.570Z,99.99
2018-08-24T05:48:21.001Z,99.99
2018-08-24T05:48:56.586Z,99.99
2018-08-24T05:49:32.147Z,99.99
2018-08-24T05:50:07.183Z,99.99
2018-08-24T05:50:42.794Z,99.99
2018-08-24T05:51:18.297Z,99.99
2018-08-24T05:51:53.614Z,99.99
2018-08-24T05:52:28.924Z,99.99
2018-08-24T05:53:04.163Z,99.99
2018-08-24T05:53:39.493Z,99.99
2018-08-24T05:54:14.619Z,99.99
2018-08-24T05:54:50.621Z,99.99
2018-08-24T05:55:25.938Z,99.99
2018-08-24T05:56:01.165Z,99.99
2018-08-24T05:56:36.473Z,99.99
2018-08-24T05:57:11.715Z,99.99
2018-08-24T05:57:47.227Z,99.99
2018-08-24T05:58:22.596Z,99.99
2018-08-24T05:58:57.878Z,99.99
2018-08-24T05:59:33.502Z,99.99
2018-08-24T06:00:08.971Z,99.99
2018-08-24T06:00:44.613Z,99.99
2018-08-24T06:01:20.069Z,99.99
2018-08-24T06:01:55.493Z,99.99
2018-08-24T06:02:30.958Z,99.99
2018-08-24T06:03:06.258Z,99.99
2018-08-24T06:03:41.528Z,99.99
2018-08-24T06:04:16.650Z,99.99
2018-08-24T06:04:51.964Z,99.99
2018-08-24T06:05:27.374Z,99.99
2018-08-24T06:06:03.177Z,99.99
2018-08-24T06:06:38.773Z,99.99
2018-08-24T06:07:13.897Z,99.99
2018-08-24T06:07:49.145Z,99.99
2018-08-24T06:08:24.298Z,99.99
2018-08-24T06:08:59.630Z,99.99
2018-08-24T06:09:34.851Z,99.99
2018-08-24T06:10:10.094Z,99.99
2018-08-24T06:10:45.582Z,99.99
2018-08-24T06:11:20.803Z,99.99
2018-08-24T06:11:56.221Z,99.99
2018-08-24T06:12:31.826Z,99.99
2018-08-24T06:13:06.916Z,99.99
2018-08-24T06:13:42.201Z,99.99
2018-08-24T06:14:17.793Z,99.99
2018-08-24T06:14:53.523Z,99.99
2018-08-24T06:15:28.929Z,99.99
2018-08-24T06:16:04.126Z,99.99
2018-08-24T06:16:39.497Z,99.99
2018-08-24T06:17:14.680Z,99.99
2018-08-24T06:17:50.008Z,99.99
2018-08-24T06:18:25.612Z,99.99
2018-08-24T06:19:01.157Z,99.99
2018-08-24T06:19:36.667Z,99.99
2018-08-24T06:20:12.131Z,99.99
2018-08-24T06:20:47.387Z,99.99
2018-08-24T06:21:22.831Z,99.54
2018-08-24T06:21:58.237Z,99.99
2018-08-24T06:22:33.548Z,99.44
2018-08-24T06:23:09.132Z,99.92
2018-08-24T06:23:44.480Z,99.98
2018-08-24T06:24:20.171Z,99.63
2018-08-24T06:24:55.477Z,99.73
2018-08-24T06:25:30.805Z,99.83
2018-08-24T06:26:05.901Z,99.92
2018-08-24T06:26:41.219Z,99.99
2018-08-24T06:27:16.554Z,99.99
2018-08-24T06:27:51.607Z,99.92
2018-08-24T06:28:26.719Z,99.73
2018-08-24T06:29:01.883Z,99.99
2018-08-24T06:29:37.116Z,99.99
2018-08-24T06:30:12.568Z,99.83
2018-08-24T06:30:48.112Z,99.73
2018-08-24T06:31:23.451Z,99.73
2018-08-24T06:31:58.844Z,99.73
2018-08-24T06:32:34.160Z,99.73
2018-08-24T06:33:09.425Z,99.99
2018-08-24T06:33:44.692Z,99.99
2018-08-24T06:34:24.318Z,99.92
2018-08-24T06:34:59.609Z,99.92
2018-08-24T06:35:35.180Z,99.99
2018-08-24T06:36:10.489Z,99.99
2018-08-24T06:36:45.825Z,99.99
2018-08-24T06:37:21.385Z,99.99
2018-08-24T06:37:56.703Z,99.99
2018-08-24T06:38:32.080Z,99.99
2018-08-24T06:39:07.517Z,99.99
2018-08-24T06:39:43.586Z,99.99
2018-08-24T06:40:18.981Z,99.99
2018-08-24T06:40:54.519Z,99.99
2018-08-24T06:41:30.123Z,99.99
2018-08-24T06:42:11.777Z,99.92
2018-08-24T06:45:26.180Z,99.99
2018-08-24T06:46:01.586Z,99.99
2018-08-24T06:46:37.792Z,99.99
2018-08-24T06:47:13.140Z,99.99
2018-08-24T06:49:49.566Z,99.99
2018-08-24T06:50:24.881Z,99.83
2018-08-24T06:51:00.890Z,99.92
2018-08-24T06:51:36.436Z,99.49
2018-08-24T06:52:12.049Z,99.73
2018-08-24T06:54:49.120Z,99.83
2018-08-24T06:55:25.632Z,99.92
2018-08-24T06:56:00.860Z,99.99
2018-08-24T06:56:35.971Z,99.68
2018-08-24T06:57:11.219Z,99.88
2018-08-24T06:57:46.497Z,99.40
2018-08-24T06:58:21.721Z,99.78
2018-08-24T07:00:59.123Z,99.11
2018-08-24T07:01:34.456Z,98.44
2018-08-24T07:02:10.239Z,98.44
2018-08-24T07:02:45.732Z,98.24
2018-08-24T07:06:01.370Z,98.44
2018-08-24T07:06:36.480Z,98.24
2018-08-24T07:07:12.099Z,98.24
2018-08-24T07:07:47.613Z,98.44
2018-08-24T07:08:23.080Z,98.24
2018-08-24T07:08:58.203Z,98.24
2018-08-24T07:09:33.510Z,98.14
2018-08-24T07:10:08.930Z,98.34
2018-08-24T07:10:44.250Z,98.44
2018-08-24T07:11:19.534Z,98.63
2018-08-24T07:11:54.911Z,98.24
2018-08-24T07:12:30.151Z,98.24
2018-08-24T07:13:05.739Z,98.24
2018-08-24T07:13:41.021Z,98.34
2018-08-24T07:16:17.264Z,98.24
2018-08-24T07:16:52.878Z,98.44
2018-08-24T07:17:28.148Z,98.24
2018-08-24T07:18:03.484Z,98.24
2018-08-24T07:18:38.865Z,98.24
2018-08-24T07:19:14.186Z,98.24
2018-08-24T07:19:49.740Z,98.53
2018-08-24T07:23:05.180Z,98.53
2018-08-24T07:23:40.489Z,98.34
2018-08-24T07:24:15.927Z,98.24
2018-08-24T07:27:30.245Z,99.11
2018-08-24T07:28:05.554Z,99.11
2018-08-24T07:28:40.966Z,98.91
2018-08-24T07:29:16.470Z,99.01
2018-08-24T07:29:51.895Z,98.72
2018-08-24T07:30:27.170Z,98.72
2018-08-24T07:31:02.352Z,99.21
2018-08-24T07:31:37.564Z,98.91
2018-08-24T07:32:12.870Z,98.72
2018-08-24T07:32:48.132Z,98.91
2018-08-24T07:33:23.624Z,98.82
2018-08-24T07:34:00.440Z,99.01
2018-08-24T07:34:35.772Z,98.82
2018-08-24T07:35:11.216Z,99.01
2018-08-24T07:35:46.343Z,99.30
2018-08-24T07:36:21.461Z,98.34
2018-08-24T07:36:56.848Z,98.63
2018-08-24T07:37:32.378Z,98.44
2018-08-24T07:38:08.260Z,98.44
2018-08-24T07:38:43.246Z,98.39
2018-08-24T07:39:18.712Z,97.62
2018-08-24T07:39:54.182Z,97.57
2018-08-24T07:40:29.522Z,97.28
2018-08-24T07:41:04.809Z,97.47
2018-08-24T07:41:40.403Z,97.47
2018-08-24T07:42:15.525Z,97.67
2018-08-24T07:42:50.622Z,97.86
2018-08-24T07:43:26.307Z,97.38
2018-08-24T07:44:01.770Z,97.57
2018-08-24T07:46:38.487Z,97.28
2018-08-24T07:47:13.828Z,97.04
2018-08-24T07:47:49.114Z,97.38
2018-08-24T07:48:25.043Z,97.24
2018-08-24T07:49:00.449Z,96.37
2018-08-24T07:49:35.543Z,95.79
2018-08-24T07:50:13.976Z,96.37
2018-08-24T07:50:49.335Z,96.08
2018-08-24T07:51:24.990Z,95.98
2018-08-24T07:52:00.962Z,95.98
2018-08-24T07:52:36.679Z,96.37
2018-08-24T07:53:12.176Z,95.98
2018-08-24T07:53:47.482Z,95.89
2018-08-24T07:54:22.686Z,95.98
2018-08-24T07:54:58.412Z,95.89
2018-08-24T07:55:33.478Z,95.40
2018-08-24T07:56:08.925Z,95.70
2018-08-24T07:56:44.267Z,95.70